createdAt,value
2024-03-16T00:01:22.369Z,7.10
2024-03-16T00:03:49.282Z,6.25
2024-03-16T00:06:15.966Z,6.20
2024-03-16T00:08:42.665Z,3.85
2024-03-16T00:11:09.398Z,6.97
2024-03-16T00:13:37.496Z,7.20
2024-03-16T00:16:05.566Z,4.22
2024-03-16T00:18:32.520Z,6.50
2024-03-16T00:20:59.385Z,7.35
2024-03-16T00:23:26.070Z,10.07
2024-03-16T00:25:52.800Z,6.85
2024-03-16T00:28:19.511Z,6.47
2024-03-16T00:30:46.200Z,8.55
2024-03-16T00:33:14.089Z,8.60
2024-03-16T00:35:41.421Z,7.38
2024-03-16T00:38:08.393Z,9.13
2024-03-16T00:40:35.212Z,7.63
2024-03-16T00:43:03.214Z,7.25
2024-03-16T00:45:30.135Z,7.45
2024-03-16T00:47:57.700Z,10.13
2024-03-16T00:50:24.609Z,8.40
2024-03-16T00:52:52.205Z,9.27
2024-03-16T00:55:19.655Z,9.27
2024-03-16T00:57:46.409Z,8.50
2024-03-16T01:00:15.835Z,9.07
2024-03-16T01:02:42.833Z,8.95
2024-03-16T01:05:09.766Z,6.40
2024-03-16T01:07:36.547Z,10.07
2024-03-16T01:10:03.686Z,6.05
2024-03-16T01:12:30.553Z,8.60
2024-03-16T01:14:58.487Z,10.15
2024-03-16T01:17:25.332Z,8.45
2024-03-16T01:19:52.075Z,8.63
2024-03-16T01:22:18.822Z,9.93
2024-03-16T01:24:45.611Z,9.27
2024-03-16T01:27:12.456Z,9.55
2024-03-16T01:29:39.646Z,9.90
2024-03-16T01:32:09.674Z,9.13
2024-03-16T01:34:37.076Z,9.10
2024-03-16T01:37:04.018Z,6.25
2024-03-16T01:39:33.597Z,9.13
2024-03-16T01:42:00.582Z,10.57
2024-03-16T01:44:27.348Z,9.50
2024-03-16T01:46:54.096Z,9.93
2024-03-16T01:49:20.787Z,9.18
2024-03-16T01:51:47.381Z,10.53
2024-03-16T01:54:14.432Z,11.05
2024-03-16T01:56:41.158Z,10.23
2024-03-16T01:59:07.878Z,7.95
2024-03-16T02:01:34.698Z,9.60
2024-03-16T02:04:01.519Z,9.07
2024-03-16T02:06:30.164Z,10.18
2024-03-16T02:08:58.103Z,11.00
2024-03-16T02:11:25.045Z,10.05
2024-03-16T02:13:52.363Z,10.63
2024-03-16T02:16:19.166Z,9.13
2024-03-16T02:18:46.205Z,10.52
2024-03-16T02:21:12.983Z,9.80
2024-03-16T02:23:41.089Z,11.73
2024-03-16T02:26:08.919Z,7.45
2024-03-16T02:28:35.836Z,8.73
2024-03-16T02:31:03.014Z,10.63
2024-03-16T02:33:30.072Z,9.88
2024-03-16T02:35:57.057Z,9.95
2024-03-16T02:38:24.218Z,8.90
2024-03-16T02:40:53.567Z,10.43
2024-03-16T02:43:20.683Z,10.30
2024-03-16T02:45:47.937Z,9.93
2024-03-16T02:48:14.846Z,10.52
2024-03-16T02:50:41.506Z,9.32
2024-03-16T02:53:09.615Z,10.50
2024-03-16T02:55:36.857Z,10.43
2024-03-16T02:58:03.775Z,10.90
2024-03-16T03:00:30.558Z,9.48
2024-03-16T03:02:58.711Z,8.43
2024-03-16T03:05:25.465Z,13.52
2024-03-16T03:07:52.181Z,11.07
2024-03-16T03:10:19.418Z,11.13
2024-03-16T03:12:47.096Z,8.80
2024-03-16T03:15:14.567Z,10.50
2024-03-16T03:17:41.305Z,11.40
2024-03-16T03:20:10.334Z,11.30
2024-03-16T03:22:37.514Z,11.30
2024-03-16T03:25:05.073Z,11.68
2024-03-16T03:27:32.114Z,11.38
2024-03-16T03:29:58.953Z,10.07
2024-03-16T03:32:25.753Z,10.75
2024-03-16T03:34:52.483Z,13.07
2024-03-16T03:37:19.233Z,12.60
2024-03-16T03:39:47.930Z,11.95
2024-03-16T03:42:15.948Z,12.43
2024-03-16T03:44:51.527Z,11.07
2024-03-16T03:47:18.377Z,10.15
2024-03-16T03:49:52.095Z,12.02
2024-03-16T03:52:19.210Z,12.00
2024-03-16T03:54:46.057Z,13.18
2024-03-16T03:57:12.876Z,11.82
2024-03-16T03:59:39.544Z,11.95
2024-03-16T04:02:06.357Z,12.20
2024-03-16T04:04:32.999Z,11.95
2024-03-16T04:06:59.736Z,13.73
2024-03-16T04:09:26.478Z,12.38
2024-03-16T04:11:53.089Z,16.77
2024-03-16T04:14:20.702Z,13.10
2024-03-16T04:16:48.880Z,13.82
2024-03-16T04:19:17.531Z,17.88
2024-03-16T04:21:45.055Z,13.02
2024-03-16T04:24:11.921Z,14.95
2024-03-16T04:26:39.103Z,11.73
2024-03-16T04:29:07.162Z,13.02
2024-03-16T04:31:34.063Z,15.85
2024-03-16T04:34:00.965Z,15.70
2024-03-16T04:36:27.707Z,15.20
2024-03-16T04:38:54.416Z,15.45
2024-03-16T04:41:21.185Z,15.10
2024-03-16T04:43:48.592Z,14.18
2024-03-16T04:46:15.491Z,14.48
2024-03-16T04:48:42.187Z,15.35
2024-03-16T04:51:08.920Z,13.50
2024-03-16T04:53:35.465Z,14.23
2024-03-16T04:56:02.450Z,13.80
2024-03-16T04:58:29.200Z,15.70
2024-03-16T05:00:55.872Z,15.25
2024-03-16T05:03:22.513Z,16.08
2024-03-16T05:05:51.772Z,15.73
2024-03-16T05:08:18.389Z,12.93
2024-03-16T05:10:51.405Z,16.02
2024-03-16T05:13:18.168Z,16.75
2024-03-16T05:15:44.908Z,13.45
2024-03-16T05:18:13.777Z,15.48
2024-03-16T05:20:40.446Z,16.73
2024-03-16T05:23:07.077Z,16.10
2024-03-16T05:25:33.648Z,16.48
2024-03-16T05:28:00.483Z,15.32
2024-03-16T05:30:27.355Z,17.40
2024-03-16T05:32:54.116Z,15.00
2024-03-16T05:35:20.861Z,14.18
2024-03-16T05:37:47.463Z,14.27
2024-03-16T05:40:14.141Z,17.65
2024-03-16T05:42:41.398Z,13.82
2024-03-16T05:45:08.596Z,16.88
2024-03-16T05:47:35.284Z,15.25
2024-03-16T05:50:02.004Z,13.98
2024-03-16T05:52:28.594Z,17.80
2024-03-16T05:54:55.976Z,16.52
2024-03-16T05:57:23.215Z,17.20
2024-03-16T05:59:49.965Z,16.55
2024-03-16T06:02:16.669Z,14.73
2024-03-16T06:04:43.530Z,15.85
2024-03-16T06:07:10.333Z,15.75
2024-03-16T06:09:37.169Z,16.63
2024-03-16T06:12:04.206Z,15.75
2024-03-16T06:14:30.846Z,16.15
2024-03-16T06:16:58.271Z,14.10
2024-03-16T06:19:24.933Z,15.38
2024-03-16T06:21:51.850Z,16.77
2024-03-16T06:24:18.752Z,14.63
2024-03-16T06:26:53.653Z,16.10
2024-03-16T06:29:27.143Z,11.02
2024-03-16T06:31:55.340Z,14.18
2024-03-16T06:34:22.013Z,11.02
2024-03-16T06:36:49.928Z,14.32
2024-03-16T06:39:22.752Z,10.13
2024-03-16T06:41:50.979Z,16.77
2024-03-16T06:44:18.477Z,12.70
2024-03-16T06:46:45.010Z,14.25
2024-03-16T06:49:12.136Z,8.90
2024-03-16T06:51:38.759Z,10.88
2024-03-16T06:54:05.554Z,11.32
2024-03-16T06:56:32.457Z,10.93
2024-03-16T06:59:00.548Z,7.90
2024-03-16T07:01:27.384Z,7.50
2024-03-16T07:03:54.165Z,7.93
2024-03-16T07:06:21.018Z,6.25
2024-03-16T07:08:47.740Z,8.52
2024-03-16T07:11:14.454Z,6.18
2024-03-16T07:13:41.223Z,6.68
2024-03-16T07:16:13.018Z,5.22
2024-03-16T07:18:39.670Z,5.80
2024-03-16T07:21:06.442Z,3.72
2024-03-16T07:23:33.014Z,3.65
2024-03-16T07:25:59.857Z,4.13
2024-03-16T07:28:26.669Z,4.60
2024-03-16T07:30:59.799Z,3.78
2024-03-16T07:33:26.661Z,3.45
2024-03-16T07:35:53.493Z,3.70
2024-03-16T07:38:20.736Z,3.80
2024-03-16T07:40:48.319Z,4.55
2024-03-16T07:43:15.112Z,3.88
2024-03-16T07:45:43.999Z,3.72
2024-03-16T07:48:11.031Z,3.22
2024-03-16T07:50:37.840Z,3.33
2024-03-16T07:53:04.826Z,3.35
2024-03-16T07:55:31.934Z,5.28
2024-03-16T07:57:58.629Z,5.43
2024-03-16T08:00:25.388Z,3.90
2024-03-16T08:02:52.122Z,3.33
2024-03-16T08:05:19.384Z,3.75
2024-03-16T08:07:48.537Z,3.97
2024-03-16T08:10:15.244Z,3.15
2024-03-16T08:12:42.724Z,3.33
2024-03-16T08:15:10.616Z,3.00
2024-03-16T08:17:37.338Z,3.58
2024-03-16T08:20:05.953Z,4.05
2024-03-16T08:22:32.637Z,3.95
2024-03-16T08:24:59.452Z,3.22
2024-03-16T08:27:32.059Z,3.83
2024-03-16T08:30:00.951Z,3.53
2024-03-16T08:32:27.692Z,3.00
2024-03-16T08:34:55.980Z,3.25
2024-03-16T08:37:22.966Z,3.10
2024-03-16T08:39:49.848Z,3.20
2024-03-16T08:42:16.819Z,1.90
2024-03-16T08:44:43.568Z,3.08
2024-03-16T08:47:10.456Z,2.03
2024-03-16T08:49:37.176Z,3.70
2024-03-16T08:52:05.045Z,3.75
2024-03-16T08:54:33.778Z,2.30
2024-03-16T08:57:01.274Z,4.15
2024-03-16T08:59:29.293Z,3.03
2024-03-16T09:01:56.198Z,3.42
2024-03-16T09:04:23.005Z,3.13
2024-03-16T09:06:49.778Z,3.08
2024-03-16T09:09:17.674Z,3.22
2024-03-16T09:11:44.830Z,2.88
2024-03-16T09:14:11.976Z,3.65
2024-03-16T09:16:42.244Z,2.92
2024-03-16T09:19:09.170Z,2.80
2024-03-16T09:21:36.492Z,3.33
2024-03-16T09:24:03.931Z,3.45
2024-03-16T09:26:30.750Z,3.28
2024-03-16T09:28:57.600Z,2.67
2024-03-16T09:31:27.248Z,1.55
2024-03-16T09:33:54.252Z,3.47
2024-03-16T09:36:21.243Z,3.88
2024-03-16T09:38:48.981Z,4.10
2024-03-16T09:41:19.959Z,2.67
